Britton, Michigan
Current Conditions -  °F | °C
As of 12:53 AM on Friday 28 Nov 2014 (Local Time) from KADG Reporting Station
Clear Clear  
Wind Chill: 11°   Ceiling: Unl
Heat Index: 19°   Visibility: 10mi
Dew Point: 11°   Wind: 6mph
Humidity: 71%   Direction: 350°N
Pressure: 30.33"   Gusts: NA
Location:  41.99°N, 83.83°W
Report Text: KADG 280553Z AUTO 35005KT 10SM CLR M07/M12 A3033 RMK AO2 SLP284 60000 T10721117 11022 21072 50002
Loading
Personal Weather Stations






























Interactive Weather Map New forecast layout! Learn more

10-Day Weather Forecast

Advertisements
Track Severe Weather on mobile